Terminal Aerodrome Forecast
Issued by NWS

Home | Current Version | Previous Version | Text Only | Print | Product List | Glossary On
Versions: 1 2 3 4 5 6 7 8 9 10 11 12 13 14 15 16 17 18
000
FTUS42 KILM 202320
TAFCRE
TAF
KCRE 202320Z 2100/2124 15005KT P6SM FEW040 SCT070
     FM210200 17004KT P6SM SKC
     FM210600 00000KT 2SM BR SCT250
     FM210900 00000KT 1/2SM FG FEW250
     FM211200 03002KT 4SM BR FEW250
     FM211500 08005KT P6SM BKN250
     FM211800 15008KT 5SM HZ BKN250=

USA.gov is the U.S. government's official web portal to all federal, state and local government web resources and services.